Strona główna
METAR-TAF:

METAR-TAF

Lotnisko :

Dübendorf, Szwajcaria

Szerokość geograficzna: 47-23-55N, Długość geograficzna: 8-38-53E, wysokość: 448 m

Aktualna obserwacja pogody

Raport powstał 59 minut temu, godzina 08:50 UTC
Wiatr 4 kt od południe, zmienny między południowo-południowy wschód i zachodnio-południowy zachód
Temperatura 22°C
Wilgotność 78%
Ciśnienie 1023 hPa
Widzialność 10 km lub więcej
Rozproszone chmury na wysokości 2900 ft
Przerywane chmury na wysokości 4600 ft
Przerywane chmury na wysokości 8400 ft

METAR: LSMD 210850Z AUTO 19004KT 150V240 9999NDV SCT029 BKN046 BKN084 22/18 Q1023 RMK

czas: 11:49 (09:49 UTC)


TAF: brakujący

Obserwacja i prognoza pogody dla ponad 4000 lotnisk (raport METAR i TAF).

Dostępne stacje oznaczono żółtymi i czerwonymi punktami na mapie.

Najedź kursorem aby zobaczyć nazwę stacji.

Kliknij aby zobaczyć obserwacje i prognozy pogody.

Aby zmienić mapę: kliknij na zielony przycisk z czarnym krzyżykiem, aby powiększyć; na zielony przycisk z myślnikiem, aby pomniejszyć; na zielone strzałki, aby przejść do map sąsiednich.


METAR-TAF: